createdAt,value
2023-01-09T00:00:50.854Z,9.90
2023-01-09T00:02:24.415Z,10.15
2023-01-09T00:03:57.662Z,10.23
2023-01-09T00:05:30.857Z,9.93
2023-01-09T00:07:05.459Z,10.00
2023-01-09T00:08:38.802Z,10.80
2023-01-09T00:10:13.683Z,9.65
2023-01-09T00:11:47.061Z,9.27
2023-01-09T00:13:20.197Z,10.27
2023-01-09T00:14:53.428Z,9.85
2023-01-09T00:16:27.073Z,10.75
2023-01-09T00:18:00.517Z,10.13
2023-01-09T00:19:33.687Z,10.98
2023-01-09T00:21:09.078Z,15.73
2023-01-09T00:22:44.093Z,16.45
2023-01-09T00:24:17.504Z,14.05
2023-01-09T00:25:50.688Z,16.52
2023-01-09T00:27:24.150Z,17.48
2023-01-09T00:28:57.301Z,14.55
2023-01-09T00:30:30.879Z,15.32
2023-01-09T00:32:04.076Z,16.88
2023-01-09T00:33:41.661Z,13.52
2023-01-09T00:35:18.804Z,13.18
2023-01-09T00:36:55.244Z,13.93
2023-01-09T00:38:29.866Z,12.20
2023-01-09T00:40:03.192Z,14.23
2023-01-09T00:41:39.206Z,18.67
2023-01-09T00:43:12.395Z,22.38
2023-01-09T00:44:50.704Z,27.23
2023-01-09T00:46:28.243Z,33.08
2023-01-09T00:48:05.943Z,26.80
2023-01-09T00:49:39.368Z,25.30
2023-01-09T00:51:12.594Z,24.65
2023-01-09T00:52:48.149Z,22.58
2023-01-09T00:54:23.614Z,26.40
2023-01-09T00:55:58.990Z,24.50
2023-01-09T00:57:32.501Z,24.83
2023-01-09T00:59:06.421Z,16.95
2023-01-09T01:00:38.633Z,13.75
2023-01-09T01:02:12.073Z,12.02
2023-01-09T01:03:45.373Z,10.02
2023-01-09T01:05:36.858Z,10.77
2023-01-09T01:07:27.435Z,9.45
2023-01-09T01:09:00.581Z,10.43
2023-01-09T01:10:37.038Z,10.48
2023-01-09T01:12:10.435Z,10.18
2023-01-09T01:13:44.025Z,9.13
2023-01-09T01:15:18.454Z,10.05
2023-01-09T01:16:50.665Z,10.07
2023-01-09T01:18:24.343Z,9.90
2023-01-09T01:19:56.456Z,11.15
2023-01-09T01:21:29.913Z,11.63
2023-01-09T01:23:03.096Z,12.70
2023-01-09T01:24:36.429Z,11.27
2023-01-09T01:26:12.855Z,13.13
2023-01-09T01:27:46.773Z,12.00
2023-01-09T01:29:20.125Z,12.88
2023-01-09T01:30:53.701Z,13.52
2023-01-09T01:32:25.884Z,21.15
2023-01-09T01:33:59.262Z,13.73
2023-01-09T01:35:32.566Z,13.10
2023-01-09T01:37:05.708Z,11.65
2023-01-09T01:38:39.015Z,11.52
2023-01-09T01:40:13.531Z,12.38
2023-01-09T01:41:47.471Z,12.15
2023-01-09T01:43:21.218Z,12.77
2023-01-09T01:45:04.069Z,10.75
2023-01-09T01:46:37.313Z,10.55
2023-01-09T01:48:12.548Z,12.82
2023-01-09T01:49:45.543Z,11.10
2023-01-09T01:51:22.563Z,10.10
2023-01-09T01:53:01.340Z,10.40
2023-01-09T01:54:34.949Z,9.98
2023-01-09T01:56:13.688Z,14.77
2023-01-09T01:57:50.428Z,19.92
2023-01-09T01:59:27.663Z,13.55
2023-01-09T02:01:01.332Z,13.48
2023-01-09T02:02:33.957Z,14.10
2023-01-09T02:04:11.365Z,13.88
2023-01-09T02:05:44.440Z,14.18
2023-01-09T02:07:17.589Z,12.63
2023-01-09T02:08:51.958Z,12.55
2023-01-09T02:10:25.853Z,13.43
2023-01-09T02:12:01.014Z,11.80
2023-01-09T02:13:38.826Z,12.20
2023-01-09T02:15:14.964Z,12.07
2023-01-09T02:17:08.449Z,12.48
2023-01-09T02:18:48.358Z,12.25
2023-01-09T02:20:38.061Z,11.95
2023-01-09T02:22:20.664Z,13.45
2023-01-09T02:24:29.821Z,17.90
2023-01-09T02:26:37.100Z,19.75
2023-01-09T02:28:37.117Z,15.35
2023-01-09T02:30:40.067Z,15.40
2023-01-09T02:32:24.671Z,14.88
2023-01-09T02:34:08.643Z,17.00
2023-01-09T02:35:58.061Z,15.57
2023-01-09T02:37:42.088Z,15.35
2023-01-09T02:39:25.889Z,16.15
2023-01-09T02:41:05.656Z,16.98
2023-01-09T02:42:43.345Z,17.45
2023-01-09T02:44:18.353Z,19.50
2023-01-09T02:45:52.937Z,18.23
2023-01-09T02:47:41.659Z,16.48
2023-01-09T02:49:17.507Z,16.13
2023-01-09T02:51:02.510Z,14.73
2023-01-09T02:52:47.906Z,15.02
2023-01-09T02:54:34.358Z,16.02
2023-01-09T02:56:21.851Z,15.25
2023-01-09T02:58:05.140Z,14.60
2023-01-09T02:59:53.910Z,16.60
2023-01-09T03:01:38.847Z,15.20
2023-01-09T03:03:22.108Z,16.17
2023-01-09T03:05:00.682Z,15.73
2023-01-09T03:06:46.400Z,17.77
2023-01-09T03:08:22.890Z,18.67
2023-01-09T03:10:09.991Z,19.25
2023-01-09T03:11:53.954Z,17.33
2023-01-09T03:13:32.621Z,17.30
2023-01-09T03:15:08.228Z,16.73
2023-01-09T03:16:47.056Z,16.63
2023-01-09T03:18:24.364Z,15.80
2023-01-09T03:19:58.858Z,15.80
2023-01-09T03:21:33.751Z,16.08
2023-01-09T03:23:07.488Z,16.75
2023-01-09T03:24:40.641Z,16.50
2023-01-09T03:26:13.922Z,17.10
2023-01-09T03:27:47.013Z,16.00
2023-01-09T03:29:20.300Z,13.70
2023-01-09T03:30:53.505Z,13.18
2023-01-09T03:32:28.025Z,14.48
2023-01-09T03:34:01.158Z,13.52
2023-01-09T03:35:34.498Z,14.50
2023-01-09T03:37:07.600Z,13.98
2023-01-09T03:38:40.856Z,14.65
2023-01-09T03:40:14.107Z,13.82
2023-01-09T03:41:47.634Z,15.55
2023-01-09T03:43:20.835Z,15.48
2023-01-09T03:44:53.931Z,15.90
2023-01-09T03:46:27.095Z,17.90
2023-01-09T03:48:01.047Z,18.92
2023-01-09T03:49:34.167Z,19.80
2023-01-09T03:51:07.713Z,19.10
2023-01-09T03:52:41.455Z,19.30
2023-01-09T03:54:14.818Z,21.10
2023-01-09T03:55:49.423Z,20.75
2023-01-09T03:57:25.735Z,20.15
2023-01-09T03:59:01.031Z,19.88
2023-01-09T04:00:34.590Z,19.20
2023-01-09T04:02:08.213Z,21.85
2023-01-09T04:03:43.430Z,21.88
2023-01-09T04:05:20.971Z,30.33
2023-01-09T04:06:54.487Z,25.35
2023-01-09T04:08:28.190Z,26.52
2023-01-09T04:10:01.809Z,30.33
2023-01-09T04:11:34.978Z,28.88
2023-01-09T04:13:08.118Z,36.95
2023-01-09T04:14:41.315Z,32.75
2023-01-09T04:16:14.835Z,31.40
2023-01-09T04:17:48.173Z,36.83
2023-01-09T04:19:23.409Z,34.22
2023-01-09T04:20:56.963Z,30.67
2023-01-09T04:22:31.500Z,21.67
2023-01-09T04:24:05.005Z,24.17
2023-01-09T04:25:38.284Z,25.08
2023-01-09T04:27:12.195Z,25.38
2023-01-09T04:28:46.247Z,24.15
2023-01-09T04:30:19.503Z,25.73
2023-01-09T04:31:56.913Z,27.20
2023-01-09T04:33:30.010Z,25.63
2023-01-09T04:35:04.488Z,28.83
2023-01-09T04:36:37.742Z,25.38
2023-01-09T04:38:11.454Z,26.42
2023-01-09T04:39:45.204Z,25.98
2023-01-09T04:41:32.195Z,35.78
2023-01-09T04:43:05.311Z,31.25
2023-01-09T04:44:41.895Z,32.53
2023-01-09T04:46:17.869Z,29.17
2023-01-09T04:47:53.753Z,28.55
2023-01-09T04:49:27.465Z,29.85
2023-01-09T04:51:02.477Z,31.88
2023-01-09T04:52:38.163Z,30.08
2023-01-09T04:54:12.592Z,27.85
2023-01-09T04:55:45.676Z,21.35
2023-01-09T04:57:19.404Z,19.98
2023-01-09T04:58:52.614Z,26.38
2023-01-09T05:00:25.951Z,27.15
2023-01-09T05:01:59.596Z,29.30
2023-01-09T05:03:33.244Z,25.08
2023-01-09T05:05:09.723Z,25.70
2023-01-09T05:06:45.931Z,25.17
2023-01-09T05:08:19.049Z,27.55
2023-01-09T05:09:52.530Z,24.58
2023-01-09T05:11:25.770Z,26.58
2023-01-09T05:12:58.952Z,24.30
2023-01-09T05:14:32.103Z,32.10
2023-01-09T05:16:06.014Z,42.50
2023-01-09T05:17:39.277Z,42.88
2023-01-09T05:19:12.752Z,36.63
2023-01-09T05:20:45.946Z,36.10
2023-01-09T05:22:20.782Z,37.00
2023-01-09T05:23:52.984Z,32.30
2023-01-09T05:25:26.476Z,24.70
2023-01-09T05:26:59.563Z,27.75
2023-01-09T05:28:33.579Z,31.33
2023-01-09T05:30:07.514Z,30.90
2023-01-09T05:31:39.938Z,30.63
2023-01-09T05:33:13.081Z,26.48
2023-01-09T05:34:46.374Z,31.90
2023-01-09T05:36:19.610Z,32.10
2023-01-09T05:37:54.252Z,39.78
2023-01-09T05:39:27.470Z,35.25
2023-01-09T05:41:00.873Z,33.42
2023-01-09T05:42:34.066Z,29.05
2023-01-09T05:44:07.356Z,35.25
2023-01-09T05:45:40.566Z,30.33
2023-01-09T05:47:14.140Z,35.38
2023-01-09T05:48:47.333Z,25.65
2023-01-09T05:50:20.509Z,22.63
2023-01-09T05:51:53.676Z,25.35
2023-01-09T05:53:28.457Z,30.92
2023-01-09T05:55:01.620Z,28.15
2023-01-09T05:56:35.055Z,29.30
2023-01-09T05:58:08.222Z,30.35
2023-01-09T05:59:41.767Z,45.28
2023-01-09T06:01:15.045Z,44.90
2023-01-09T06:02:48.386Z,31.55
2023-01-09T06:04:21.841Z,33.65
2023-01-09T06:05:55.230Z,40.97
2023-01-09T06:07:28.391Z,34.70
2023-01-09T06:09:03.642Z,31.85
2023-01-09T06:10:36.810Z,27.27
2023-01-09T06:12:10.411Z,25.15
2023-01-09T06:13:43.598Z,22.48
2023-01-09T06:15:17.108Z,28.08
2023-01-09T06:16:50.419Z,28.45
2023-01-09T06:18:23.881Z,38.92
2023-01-09T06:19:56.996Z,39.92
2023-01-09T06:21:30.174Z,34.70
2023-01-09T06:23:03.365Z,41.78
2023-01-09T06:24:37.967Z,36.55
2023-01-09T06:26:11.145Z,38.13
2023-01-09T06:27:44.217Z,43.38
2023-01-09T06:29:17.451Z,42.15
2023-01-09T06:30:52.334Z,48.90
2023-01-09T06:32:25.505Z,34.08
2023-01-09T06:33:58.648Z,38.60
2023-01-09T06:35:31.833Z,38.88
2023-01-09T06:37:04.514Z,39.92
2023-01-09T06:38:37.614Z,42.97
2023-01-09T06:40:13.313Z,39.78
2023-01-09T06:41:48.507Z,33.38
2023-01-09T06:43:22.169Z,32.17
2023-01-09T06:44:55.313Z,30.90
2023-01-09T06:46:28.509Z,28.60
2023-01-09T06:48:01.760Z,30.73
2023-01-09T06:49:35.137Z,33.55
2023-01-09T06:51:08.383Z,32.17
2023-01-09T06:52:41.556Z,25.45
2023-01-09T06:54:14.705Z,27.85
2023-01-09T06:55:49.552Z,28.92
2023-01-09T06:57:22.651Z,33.55
2023-01-09T06:58:55.933Z,27.98
2023-01-09T07:00:31.508Z,30.35
2023-01-09T07:02:05.310Z,34.47
2023-01-09T07:03:38.566Z,31.15
2023-01-09T07:05:12.128Z,27.38
2023-01-09T07:06:48.316Z,37.25
2023-01-09T07:08:21.920Z,40.65
2023-01-09T07:09:55.043Z,40.40
2023-01-09T07:11:29.521Z,38.60
2023-01-09T07:13:02.704Z,36.67
2023-01-09T07:14:36.229Z,38.55
2023-01-09T07:16:09.830Z,43.22
2023-01-09T07:17:42.978Z,38.47
2023-01-09T07:19:16.187Z,31.80
2023-01-09T07:20:49.784Z,32.55
2023-01-09T07:22:22.899Z,31.75
2023-01-09T07:23:56.071Z,32.08
2023-01-09T07:25:29.276Z,31.75
2023-01-09T07:27:04.508Z,33.25
2023-01-09T07:28:37.621Z,28.42
2023-01-09T07:30:12.189Z,30.70
2023-01-09T07:31:45.306Z,29.20
2023-01-09T07:33:18.542Z,33.28
2023-01-09T07:34:51.782Z,30.27
2023-01-09T07:36:25.111Z,27.05
2023-01-09T07:37:58.245Z,30.42
2023-01-09T07:39:31.393Z,30.98
2023-01-09T07:41:04.598Z,33.17
2023-01-09T07:42:39.370Z,29.35
2023-01-09T07:44:12.530Z,34.42
2023-01-09T07:45:47.679Z,37.78
2023-01-09T07:47:20.798Z,41.28
2023-01-09T07:48:54.022Z,35.78
2023-01-09T07:50:27.215Z,41.75
2023-01-09T07:52:00.661Z,40.97
2023-01-09T07:53:33.734Z,36.40
2023-01-09T07:55:07.972Z,33.80
2023-01-09T07:56:41.471Z,38.83
2023-01-09T07:58:16.213Z,41.45
2023-01-09T07:59:49.287Z,37.80
2023-01-09T08:01:22.777Z,40.38
2023-01-09T08:02:56.217Z,36.50
2023-01-09T08:04:29.602Z,41.50
2023-01-09T08:06:02.855Z,42.85
2023-01-09T08:07:36.224Z,40.88
2023-01-09T08:09:09.667Z,41.55
2023-01-09T08:10:43.227Z,43.25
2023-01-09T08:12:16.457Z,41.85
2023-01-09T08:13:51.128Z,43.63
2023-01-09T08:15:24.235Z,42.63
2023-01-09T08:16:57.953Z,44.90
2023-01-09T08:18:31.139Z,41.20
2023-01-09T08:20:04.854Z,41.65
2023-01-09T08:21:37.929Z,44.67
2023-01-09T08:23:11.412Z,43.30
2023-01-09T08:24:44.553Z,42.00
2023-01-09T08:26:18.548Z,39.47
2023-01-09T08:27:51.717Z,44.72
2023-01-09T08:29:26.512Z,36.65
2023-01-09T08:30:59.837Z,41.03
2023-01-09T08:32:33.301Z,40.60
2023-01-09T08:34:06.385Z,37.33
2023-01-09T08:35:39.850Z,37.78
2023-01-09T08:37:13.055Z,38.28
2023-01-09T08:38:46.200Z,31.98
2023-01-09T08:40:19.738Z,27.85
2023-01-09T08:42:10.805Z,29.88
2023-01-09T08:44:01.388Z,32.17
2023-01-09T08:45:53.546Z,37.03
2023-01-09T08:47:29.081Z,36.30
2023-01-09T08:49:02.275Z,39.10
2023-01-09T08:50:35.582Z,51.80
2023-01-09T08:52:08.937Z,46.13
2023-01-09T08:53:42.466Z,37.67
2023-01-09T08:55:15.800Z,30.60
2023-01-09T08:56:49.210Z,32.92
2023-01-09T08:58:22.372Z,34.83
2023-01-09T08:59:55.621Z,36.72
2023-01-09T09:01:30.263Z,35.55
2023-01-09T09:03:03.765Z,37.35
2023-01-09T09:04:36.919Z,38.40
2023-01-09T09:06:10.480Z,49.58
2023-01-09T09:07:43.592Z,42.05
2023-01-09T09:09:17.072Z,36.78
2023-01-09T09:10:50.202Z,35.47
2023-01-09T09:12:24.328Z,33.05
2023-01-09T09:13:57.714Z,30.23
2023-01-09T09:15:30.023Z,30.10
2023-01-09T09:17:04.661Z,30.65
2023-01-09T09:18:37.948Z,35.40
2023-01-09T09:20:12.598Z,35.70
2023-01-09T09:21:46.118Z,37.78
2023-01-09T09:23:19.346Z,37.38
2023-01-09T09:24:52.607Z,35.90
2023-01-09T09:26:25.893Z,38.85
2023-01-09T09:28:01.254Z,36.50
2023-01-09T09:29:34.474Z,46.17
2023-01-09T09:31:08.790Z,42.78
2023-01-09T09:32:43.836Z,47.60
2023-01-09T09:34:17.273Z,43.83
2023-01-09T09:35:51.871Z,42.97
2023-01-09T09:37:25.436Z,39.38
2023-01-09T09:38:58.579Z,42.30
2023-01-09T09:40:57.932Z,42.97
2023-01-09T09:43:30.359Z,40.35
2023-01-09T09:45:14.718Z,40.97
2023-01-09T09:46:57.415Z,47.17
2023-01-09T09:48:37.645Z,39.40
2023-01-09T09:50:27.657Z,41.63
2023-01-09T09:52:09.568Z,41.42
2023-01-09T09:53:52.963Z,48.45
2023-01-09T09:55:31.026Z,50.00
2023-01-09T09:57:06.549Z,43.42
2023-01-09T09:58:41.937Z,45.00
2023-01-09T10:00:20.349Z,55.78
2023-01-09T10:01:57.601Z,47.38
2023-01-09T10:03:38.532Z,40.13
2023-01-09T10:05:18.226Z,41.25
2023-01-09T10:06:53.883Z,40.10
2023-01-09T10:08:35.642Z,41.15
2023-01-09T10:10:15.889Z,46.28
2023-01-09T10:11:54.096Z,40.47
2023-01-09T10:13:45.265Z,37.20
2023-01-09T10:15:25.278Z,37.88
2023-01-09T10:17:13.163Z,31.60
2023-01-09T10:18:59.980Z,32.88
2023-01-09T10:20:53.871Z,30.77
2023-01-09T10:22:39.702Z,30.52
2023-01-09T10:24:33.919Z,30.17
2023-01-09T10:26:13.175Z,32.28
2023-01-09T10:28:01.868Z,30.38
2023-01-09T10:29:45.794Z,30.05
2023-01-09T10:31:28.620Z,31.52
2023-01-09T10:33:14.881Z,35.38
2023-01-09T10:35:03.555Z,31.58
2023-01-09T10:37:01.327Z,26.92
2023-01-09T10:38:36.997Z,24.77
2023-01-09T10:40:20.775Z,21.55
2023-01-09T10:42:01.801Z,24.45
2023-01-09T10:43:42.715Z,27.02
2023-01-09T10:45:21.612Z,24.02
2023-01-09T10:46:56.600Z,18.63
2023-01-09T10:48:33.749Z,20.98
2023-01-09T10:50:21.111Z,20.10
2023-01-09T10:52:05.530Z,21.23
2023-01-09T10:53:43.116Z,18.35
2023-01-09T10:55:20.766Z,19.67
2023-01-09T10:56:57.393Z,18.70
2023-01-09T10:58:30.908Z,15.65
2023-01-09T11:00:05.744Z,18.50
2023-01-09T11:01:43.401Z,22.17
2023-01-09T11:03:18.430Z,20.13
2023-01-09T11:04:52.044Z,19.90
2023-01-09T11:06:33.647Z,16.75
2023-01-09T11:08:18.352Z,21.95
2023-01-09T11:09:59.783Z,19.55
2023-01-09T11:11:35.158Z,17.77
2023-01-09T11:13:16.726Z,20.27
2023-01-09T11:14:49.911Z,18.38
2023-01-09T11:16:24.392Z,17.00
2023-01-09T11:18:20.204Z,14.90
2023-01-09T11:20:04.755Z,14.00
2023-01-09T11:21:42.052Z,17.60
2023-01-09T11:23:30.998Z,18.90
2023-01-09T11:25:06.573Z,17.30
2023-01-09T11:26:39.727Z,24.38
2023-01-09T11:28:13.131Z,21.67
2023-01-09T11:29:46.268Z,17.65
2023-01-09T11:31:24.583Z,18.38
2023-01-09T11:32:59.075Z,20.17
2023-01-09T11:34:34.700Z,21.42
2023-01-09T11:36:11.156Z,19.40
2023-01-09T11:37:47.189Z,24.25
2023-01-09T11:39:25.032Z,22.67
2023-01-09T11:41:00.789Z,21.38
2023-01-09T11:42:52.236Z,22.85
2023-01-09T11:44:26.851Z,19.58
2023-01-09T11:46:03.460Z,21.58
2023-01-09T11:47:40.897Z,19.38
2023-01-09T11:49:25.555Z,20.38
2023-01-09T11:51:01.277Z,20.02
2023-01-09T11:52:34.893Z,23.65
2023-01-09T11:54:18.998Z,20.80
2023-01-09T11:55:59.524Z,20.67
2023-01-09T11:57:34.649Z,19.58
2023-01-09T11:59:12.431Z,19.67
2023-01-09T12:00:53.897Z,20.58
2023-01-09T12:02:48.108Z,16.67
2023-01-09T12:04:25.846Z,14.82
2023-01-09T12:06:05.107Z,17.33
2023-01-09T12:07:59.246Z,16.08
2023-01-09T12:09:42.719Z,16.98
2023-01-09T12:11:31.241Z,18.30
2023-01-09T12:13:14.730Z,17.60
2023-01-09T12:15:01.385Z,18.40
2023-01-09T12:16:40.855Z,19.88
2023-01-09T12:18:36.580Z,18.30
2023-01-09T12:20:33.929Z,20.50
2023-01-09T12:22:16.154Z,21.98
2023-01-09T12:24:01.596Z,20.05
2023-01-09T12:25:48.693Z,19.55
2023-01-09T12:27:34.527Z,17.77
2023-01-09T12:29:28.196Z,16.98
2023-01-09T12:31:17.022Z,15.32
2023-01-09T12:33:05.179Z,17.02
2023-01-09T12:34:53.882Z,13.95
2023-01-09T12:36:34.267Z,13.88
2023-01-09T12:38:22.860Z,12.82
2023-01-09T12:40:04.477Z,14.02
2023-01-09T12:42:16.868Z,12.93
2023-01-09T12:44:02.748Z,12.50
2023-01-09T12:45:44.653Z,13.57
2023-01-09T12:47:46.275Z,12.88
2023-01-09T12:49:34.104Z,13.30
2023-01-09T12:51:21.921Z,15.23
2023-01-09T12:53:07.023Z,18.95
2023-01-09T12:54:47.044Z,16.50
2023-01-09T12:56:26.551Z,13.43
2023-01-09T12:58:08.719Z,13.82
2023-01-09T12:59:46.758Z,13.18
2023-01-09T13:01:28.078Z,14.48
2023-01-09T13:03:12.448Z,15.40
2023-01-09T13:04:54.805Z,15.00
2023-01-09T13:06:29.915Z,13.65
2023-01-09T13:08:06.493Z,13.25
2023-01-09T13:09:44.039Z,12.75
2023-01-09T13:11:24.171Z,13.77
2023-01-09T13:13:06.516Z,14.05
2023-01-09T13:14:50.289Z,12.57
2023-01-09T13:16:27.398Z,12.90
2023-01-09T13:18:05.610Z,13.05
2023-01-09T13:19:40.759Z,10.77
2023-01-09T13:21:15.111Z,11.65
2023-01-09T13:22:52.446Z,11.85
2023-01-09T13:24:32.131Z,11.02
2023-01-09T13:26:08.267Z,12.02
2023-01-09T13:27:44.514Z,11.95
2023-01-09T13:29:24.151Z,12.23
2023-01-09T13:31:20.729Z,13.52
2023-01-09T13:33:08.438Z,12.65
2023-01-09T13:34:42.909Z,11.82
2023-01-09T13:36:25.700Z,12.77
2023-01-09T13:37:58.994Z,11.10
2023-01-09T13:39:35.253Z,11.43
2023-01-09T13:41:32.350Z,11.00
2023-01-09T13:43:09.729Z,17.30
2023-01-09T13:44:45.650Z,21.25
2023-01-09T13:46:18.897Z,19.90
2023-01-09T13:48:34.012Z,21.50
2023-01-09T13:50:25.303Z,19.98
2023-01-09T13:52:01.900Z,17.15
2023-01-09T13:53:48.304Z,17.42
2023-01-09T13:55:37.146Z,17.40
2023-01-09T13:57:26.578Z,21.70
2023-01-09T13:59:03.252Z,29.85
2023-01-09T14:00:52.911Z,31.05
2023-01-09T14:02:57.784Z,33.28
2023-01-09T14:04:47.647Z,22.90
2023-01-09T14:06:22.436Z,19.40
2023-01-09T14:08:05.002Z,20.40
2023-01-09T14:09:38.789Z,24.83
2023-01-09T14:11:23.748Z,30.70
2023-01-09T14:12:59.284Z,29.80
2023-01-09T14:14:35.145Z,28.50
2023-01-09T14:16:18.344Z,28.88
2023-01-09T14:18:01.071Z,26.02
2023-01-09T14:19:37.332Z,25.63
2023-01-09T14:21:13.333Z,29.55
2023-01-09T14:22:56.285Z,29.63
2023-01-09T14:24:44.285Z,29.58
2023-01-09T14:26:19.672Z,28.00
2023-01-09T14:28:08.504Z,26.23
2023-01-09T14:29:47.684Z,27.05
2023-01-09T14:31:40.121Z,31.33
2023-01-09T14:33:30.002Z,28.15
2023-01-09T14:35:12.082Z,32.53
2023-01-09T14:36:45.825Z,41.45
2023-01-09T14:38:28.815Z,50.10
2023-01-09T14:40:03.020Z,43.78
2023-01-09T14:41:56.627Z,55.25
2023-01-09T14:43:54.934Z,53.45
2023-01-09T14:45:28.791Z,49.50
2023-01-09T14:47:12.913Z,52.78
2023-01-09T14:48:58.407Z,52.05
2023-01-09T14:50:35.751Z,46.55
2023-01-09T14:52:16.810Z,38.60
2023-01-09T14:53:53.255Z,37.90
2023-01-09T14:55:32.153Z,47.63
2023-01-09T14:57:24.837Z,43.80
2023-01-09T14:59:11.579Z,64.45
2023-01-09T15:00:50.495Z,61.97
2023-01-09T15:02:28.182Z,55.03
2023-01-09T15:04:04.011Z,40.92
2023-01-09T15:05:37.989Z,44.88
2023-01-09T15:07:22.858Z,40.00
2023-01-09T15:08:59.274Z,44.40
2023-01-09T15:10:34.277Z,55.70
2023-01-09T15:12:10.540Z,59.83
2023-01-09T15:13:47.936Z,52.00
2023-01-09T15:15:23.298Z,55.80
2023-01-09T15:16:56.594Z,80.60
2023-01-09T15:18:35.630Z,68.57
2023-01-09T15:20:18.778Z,62.55
2023-01-09T15:22:00.684Z,65.03
2023-01-09T15:23:34.152Z,69.65
2023-01-09T15:25:34.173Z,66.93
2023-01-09T15:27:19.544Z,54.55
2023-01-09T15:28:53.810Z,61.67
2023-01-09T15:30:34.241Z,62.38
2023-01-09T15:32:11.314Z,105.18
2023-01-09T15:33:48.086Z,107.10
2023-01-09T15:35:21.590Z,90.68
2023-01-09T15:36:58.037Z,84.10
2023-01-09T15:38:36.154Z,73.10
2023-01-09T15:40:22.486Z,64.18
2023-01-09T15:42:14.610Z,72.50
2023-01-09T15:43:47.938Z,71.65
2023-01-09T15:45:26.651Z,75.57
2023-01-09T15:47:01.987Z,70.72
2023-01-09T15:48:36.197Z,63.20
2023-01-09T15:50:17.903Z,231.38
2023-01-09T15:51:52.484Z,48.53
2023-01-09T15:53:28.262Z,35.05
2023-01-09T15:55:01.727Z,52.65
2023-01-09T15:56:35.508Z,66.15
2023-01-09T15:58:28.197Z,98.28
2023-01-09T16:00:39.419Z,106.50
2023-01-09T16:02:33.892Z,114.00
2023-01-09T16:04:10.237Z,111.68
2023-01-09T16:05:48.162Z,107.57
2023-01-09T16:07:23.232Z,103.25
2023-01-09T16:09:01.393Z,107.05
2023-01-09T16:10:37.283Z,103.53
2023-01-09T16:12:21.224Z,109.75
2023-01-09T16:13:56.708Z,104.82
2023-01-09T16:15:33.624Z,140.18
2023-01-09T16:17:09.881Z,213.05
2023-01-09T16:18:52.457Z,138.75
2023-01-09T16:20:27.202Z,127.82
2023-01-09T16:22:04.338Z,148.57
2023-01-09T16:23:38.276Z,132.70
2023-01-09T16:25:29.821Z,123.90
2023-01-09T16:27:27.140Z,140.68
2023-01-09T16:29:31.158Z,110.93
2023-01-09T16:31:08.947Z,105.30
2023-01-09T16:32:51.536Z,90.45
2023-01-09T16:34:25.761Z,91.63
2023-01-09T16:36:00.039Z,81.82
2023-01-09T16:37:36.151Z,74.00
2023-01-09T16:39:15.209Z,70.75
2023-01-09T16:41:22.990Z,66.93
2023-01-09T16:43:04.567Z,61.60
2023-01-09T16:44:38.179Z,56.40
2023-01-09T16:46:12.253Z,59.47
2023-01-09T16:47:47.300Z,66.10
2023-01-09T16:49:23.735Z,58.90
2023-01-09T16:50:57.692Z,57.75
2023-01-09T16:52:30.923Z,68.25
2023-01-09T16:54:05.800Z,63.92
2023-01-09T16:55:39.627Z,74.15
2023-01-09T16:57:20.314Z,72.13
2023-01-09T16:58:54.827Z,64.57
2023-01-09T17:00:28.701Z,61.10
2023-01-09T17:02:01.913Z,75.20
2023-01-09T17:03:35.396Z,94.63
2023-01-09T17:05:10.337Z,94.30
2023-01-09T17:06:46.614Z,83.07
2023-01-09T17:08:26.224Z,89.85
2023-01-09T17:10:01.252Z,86.78
2023-01-09T17:11:39.444Z,85.88
2023-01-09T17:13:12.734Z,85.10
2023-01-09T17:14:45.835Z,102.82
2023-01-09T17:16:19.695Z,103.80
2023-01-09T17:17:56.251Z,93.57
2023-01-09T17:19:31.896Z,75.95
2023-01-09T17:21:08.333Z,83.68
2023-01-09T17:22:41.450Z,81.38
2023-01-09T17:24:34.746Z,79.60
2023-01-09T17:26:34.639Z,86.30
2023-01-09T17:28:25.193Z,81.22
2023-01-09T17:29:59.447Z,61.50
2023-01-09T17:31:33.957Z,63.80
2023-01-09T17:33:07.599Z,58.95
2023-01-09T17:34:40.893Z,51.95
2023-01-09T17:36:22.577Z,45.08
2023-01-09T17:37:55.911Z,47.95
2023-01-09T17:39:29.207Z,55.63
2023-01-09T17:41:05.440Z,80.70
2023-01-09T17:42:40.562Z,75.38
2023-01-09T17:44:14.552Z,65.35
2023-01-09T17:45:48.113Z,112.10
2023-01-09T17:47:21.363Z,65.68
2023-01-09T17:48:54.897Z,69.43
2023-01-09T17:50:33.030Z,69.88
2023-01-09T17:52:07.057Z,60.58
2023-01-09T17:53:42.131Z,126.50
2023-01-09T17:55:20.244Z,68.90
2023-01-09T17:56:54.558Z,64.43
2023-01-09T17:58:31.131Z,53.25
2023-01-09T18:00:06.856Z,47.95
2023-01-09T18:01:41.372Z,40.15
2023-01-09T18:03:14.903Z,43.70
2023-01-09T18:04:48.563Z,48.78
2023-01-09T18:06:23.252Z,43.42
2023-01-09T18:07:57.043Z,39.13
2023-01-09T18:09:30.445Z,46.80
2023-01-09T18:11:04.726Z,69.78
2023-01-09T18:12:38.425Z,70.32
2023-01-09T18:14:14.088Z,70.18
2023-01-09T18:15:48.333Z,66.45
2023-01-09T18:17:21.694Z,66.88
2023-01-09T18:18:56.194Z,65.50
2023-01-09T18:20:29.775Z,66.30
2023-01-09T18:22:04.038Z,59.33
2023-01-09T18:23:38.064Z,52.83
2023-01-09T18:25:11.652Z,50.03
2023-01-09T18:26:45.029Z,53.45
2023-01-09T18:28:18.736Z,44.47
2023-01-09T18:29:53.646Z,43.92
2023-01-09T18:31:28.363Z,44.22
2023-01-09T18:33:02.125Z,50.00
2023-01-09T18:34:35.566Z,50.78
2023-01-09T18:36:11.035Z,73.75
2023-01-09T18:37:44.318Z,53.17
2023-01-09T18:39:18.011Z,49.50
2023-01-09T18:40:51.220Z,46.38
2023-01-09T18:42:24.455Z,52.65
2023-01-09T18:43:59.378Z,47.10
2023-01-09T18:45:34.627Z,52.35
2023-01-09T18:47:07.831Z,48.30
2023-01-09T18:48:41.100Z,90.25
2023-01-09T18:50:14.631Z,55.28
2023-01-09T18:51:48.354Z,50.95
2023-01-09T18:53:21.631Z,53.38
2023-01-09T18:54:54.992Z,56.20
2023-01-09T18:56:28.428Z,60.28
2023-01-09T18:58:02.818Z,54.65
2023-01-09T18:59:36.064Z,59.42
2023-01-09T19:01:10.685Z,52.33
2023-01-09T19:02:43.907Z,52.53
2023-01-09T19:04:17.323Z,51.67
2023-01-09T19:05:50.519Z,53.83
2023-01-09T19:07:23.735Z,52.22
2023-01-09T19:08:57.126Z,51.78
2023-01-09T19:10:30.770Z,52.10
2023-01-09T19:12:04.007Z,57.90
2023-01-09T19:13:38.476Z,67.38
2023-01-09T19:15:13.079Z,59.58
2023-01-09T19:16:48.033Z,45.90
2023-01-09T19:18:21.336Z,60.38
2023-01-09T19:19:54.462Z,42.92
2023-01-09T19:21:27.919Z,45.92
2023-01-09T19:23:01.661Z,43.00
2023-01-09T19:24:34.895Z,32.25
2023-01-09T19:26:09.453Z,38.78
2023-01-09T19:27:42.589Z,38.00
2023-01-09T19:29:18.389Z,22.77
2023-01-09T19:30:56.331Z,25.35
2023-01-09T19:32:31.033Z,24.35
2023-01-09T19:34:04.247Z,24.67
2023-01-09T19:35:38.067Z,22.73
2023-01-09T19:37:11.419Z,24.13
2023-01-09T19:38:44.942Z,27.02
2023-01-09T19:40:18.716Z,40.72
2023-01-09T19:41:52.792Z,40.53
2023-01-09T19:43:29.048Z,38.15
2023-01-09T19:45:02.496Z,39.67
2023-01-09T19:46:36.825Z,37.28
2023-01-09T19:48:12.128Z,36.25
2023-01-09T19:49:45.459Z,35.85
2023-01-09T19:51:20.914Z,40.80
2023-01-09T19:52:54.559Z,40.55
2023-01-09T19:54:29.542Z,41.45
2023-01-09T19:56:10.823Z,38.13
2023-01-09T19:57:45.295Z,35.95
2023-01-09T19:59:18.872Z,29.30
2023-01-09T20:00:52.350Z,26.08
2023-01-09T20:02:25.626Z,25.13
2023-01-09T20:04:03.396Z,27.67
2023-01-09T20:05:36.963Z,31.20
2023-01-09T20:07:10.304Z,28.10
2023-01-09T20:08:45.080Z,20.98
2023-01-09T20:10:18.569Z,21.80
2023-01-09T20:11:51.748Z,22.48
2023-01-09T20:13:25.439Z,19.92
2023-01-09T20:14:58.857Z,19.60
2023-01-09T20:16:32.232Z,20.77
2023-01-09T20:18:07.820Z,20.90
2023-01-09T20:19:44.514Z,30.17
2023-01-09T20:22:56.125Z,27.10
2023-01-09T20:24:29.485Z,27.10
2023-01-09T20:26:03.826Z,28.33
2023-01-09T20:27:37.048Z,30.95
2023-01-09T20:29:10.329Z,29.63
2023-01-09T20:30:43.848Z,30.25
2023-01-09T20:32:17.028Z,28.15
2023-01-09T20:33:51.936Z,24.02
2023-01-09T20:35:26.889Z,23.80
2023-01-09T20:37:00.137Z,27.73
2023-01-09T20:38:34.320Z,27.20
2023-01-09T20:40:08.417Z,49.35
2023-01-09T20:41:42.044Z,45.60
2023-01-09T20:43:15.203Z,38.03
2023-01-09T20:44:48.918Z,53.20
2023-01-09T20:46:23.291Z,48.05
2023-01-09T20:47:56.772Z,36.90
2023-01-09T20:49:29.964Z,43.58
2023-01-09T20:51:09.420Z,69.97
2023-01-09T20:52:42.628Z,42.08
2023-01-09T20:54:16.617Z,42.05
2023-01-09T20:55:49.750Z,25.92